createdAt,value
2018-10-03T00:01:22.261Z,4.43
2018-10-03T00:03:50.302Z,4.53
2018-10-03T00:06:18.363Z,3.83
2018-10-03T00:08:46.720Z,4.67
2018-10-03T00:11:14.858Z,4.43
2018-10-03T00:13:42.936Z,4.73
2018-10-03T00:16:11.016Z,4.27
2018-10-03T00:18:39.112Z,4.90
2018-10-03T00:21:07.229Z,5.27
2018-10-03T00:23:35.247Z,4.20
2018-10-03T00:26:03.394Z,4.27
2018-10-03T00:28:31.591Z,4.77
2018-10-03T00:30:59.693Z,5.10
2018-10-03T00:33:28.559Z,4.47
2018-10-03T00:35:56.662Z,3.63
2018-10-03T00:38:24.674Z,3.33
2018-10-03T00:40:52.684Z,4.57
2018-10-03T00:43:20.748Z,4.90
2018-10-03T00:48:35.441Z,4.53
2018-10-03T00:51:03.478Z,3.97
2018-10-03T00:53:31.628Z,3.58
2018-10-03T00:55:59.746Z,5.00
2018-10-03T00:58:27.784Z,5.08
2018-10-03T01:00:55.966Z,3.90
2018-10-03T01:03:24.072Z,3.87
2018-10-03T01:05:52.102Z,3.90
2018-10-03T01:08:20.097Z,4.50
2018-10-03T01:10:48.124Z,4.80
2018-10-03T01:13:16.208Z,3.70
2018-10-03T01:15:44.225Z,4.00
2018-10-03T01:18:12.284Z,3.80
2018-10-03T01:20:40.301Z,3.90
2018-10-03T01:23:08.340Z,3.53
2018-10-03T01:25:36.427Z,2.95
2018-10-03T01:28:04.445Z,4.33
2018-10-03T01:30:32.537Z,3.70
2018-10-03T01:33:00.558Z,4.40
2018-10-03T01:35:28.573Z,4.70
2018-10-03T01:37:56.589Z,3.73
2018-10-03T01:40:24.625Z,4.50
2018-10-03T01:42:52.649Z,3.97
2018-10-03T01:45:20.742Z,3.17
2018-10-03T01:47:48.860Z,3.10
2018-10-03T01:50:16.942Z,4.37
2018-10-03T01:52:44.991Z,3.00
2018-10-03T01:55:13.004Z,4.93
2018-10-03T01:57:41.014Z,3.77
2018-10-03T02:00:09.033Z,3.80
2018-10-03T02:02:37.058Z,4.12
2018-10-03T02:05:05.185Z,3.40
2018-10-03T02:07:33.219Z,5.43
2018-10-03T02:10:01.259Z,3.70
2018-10-03T02:12:29.320Z,3.70
2018-10-03T02:14:57.489Z,2.80
2018-10-03T02:17:25.647Z,3.97
2018-10-03T02:19:53.660Z,3.97
2018-10-03T02:22:21.677Z,3.77
2018-10-03T02:24:49.693Z,3.10
2018-10-03T02:27:17.809Z,4.00
2018-10-03T02:29:45.817Z,3.55
2018-10-03T02:32:13.946Z,3.07
2018-10-03T02:34:42.017Z,3.23
2018-10-03T02:37:10.053Z,3.93
2018-10-03T02:39:38.094Z,3.90
2018-10-03T02:42:05.969Z,3.40
2018-10-03T02:44:34.015Z,3.80
2018-10-03T02:47:02.061Z,3.90
2018-10-03T02:49:30.066Z,3.55
2018-10-03T02:51:58.088Z,3.93
2018-10-03T02:54:26.093Z,6.27
2018-10-03T02:56:54.202Z,3.47
2018-10-03T02:59:22.253Z,3.60
2018-10-03T03:01:50.406Z,4.00
2018-10-03T03:04:18.313Z,3.10
2018-10-03T03:06:46.454Z,4.67
2018-10-03T03:09:14.738Z,3.00
2018-10-03T03:11:42.797Z,3.13
2018-10-03T03:14:10.801Z,4.03
2018-10-03T03:16:38.926Z,3.97
2018-10-03T03:19:06.994Z,3.33
2018-10-03T03:21:35.101Z,3.50
2018-10-03T03:24:03.123Z,3.00
2018-10-03T03:26:31.321Z,3.40
2018-10-03T03:28:59.346Z,4.00
2018-10-03T03:31:27.472Z,3.70
2018-10-03T03:33:55.558Z,3.10
2018-10-03T03:36:23.626Z,3.37
2018-10-03T03:38:51.647Z,3.40
2018-10-03T03:41:19.839Z,3.67
2018-10-03T03:43:48.012Z,3.60
2018-10-03T03:46:16.021Z,4.13
2018-10-03T03:48:44.104Z,4.17
2018-10-03T03:51:12.213Z,3.83
2018-10-03T03:53:40.275Z,4.37
2018-10-03T03:56:08.333Z,3.23
2018-10-03T03:58:36.313Z,3.80
2018-10-03T04:01:04.323Z,3.33
2018-10-03T04:03:32.369Z,3.30
2018-10-03T04:06:00.463Z,4.10
2018-10-03T04:08:28.520Z,4.13
2018-10-03T04:10:56.606Z,4.33
2018-10-03T04:13:24.630Z,4.07
2018-10-03T04:15:52.654Z,4.23
2018-10-03T04:18:27.449Z,4.10
2018-10-03T04:20:55.473Z,3.17
2018-10-03T04:23:23.550Z,3.53
2018-10-03T04:25:51.550Z,4.00
2018-10-03T04:28:19.585Z,4.57
2018-10-03T04:30:47.597Z,3.30
2018-10-03T04:33:15.618Z,3.17
2018-10-03T04:35:43.745Z,4.27
2018-10-03T04:38:11.722Z,4.87
2018-10-03T04:40:39.784Z,4.00
2018-10-03T04:43:07.810Z,3.67
2018-10-03T04:45:36.085Z,3.53
2018-10-03T04:48:04.086Z,2.73
2018-10-03T04:50:32.112Z,4.37
2018-10-03T04:53:00.130Z,4.00
2018-10-03T04:55:28.753Z,4.00
2018-10-03T04:57:56.880Z,4.37
2018-10-03T05:00:24.898Z,3.70
2018-10-03T05:02:52.972Z,3.50
2018-10-03T05:05:20.989Z,3.13
2018-10-03T05:07:49.057Z,3.80
2018-10-03T05:10:17.161Z,4.00
2018-10-03T05:12:45.174Z,3.50
2018-10-03T05:15:13.276Z,4.63
2018-10-03T05:17:41.288Z,3.20
2018-10-03T05:20:09.374Z,3.33
2018-10-03T05:22:37.364Z,3.30
2018-10-03T05:25:05.533Z,3.70
2018-10-03T05:27:33.531Z,3.67
2018-10-03T05:30:01.499Z,3.23
2018-10-03T05:32:29.908Z,2.90
2018-10-03T05:34:57.932Z,4.63
2018-10-03T05:37:26.057Z,3.23
2018-10-03T05:39:54.085Z,4.47
2018-10-03T05:42:22.153Z,3.57
2018-10-03T05:44:50.208Z,2.47
2018-10-03T05:47:18.333Z,3.47
2018-10-03T05:49:46.444Z,3.00
2018-10-03T05:52:14.450Z,3.90
2018-10-03T05:54:42.648Z,3.77
2018-10-03T05:57:10.654Z,3.67
2018-10-03T05:59:38.789Z,3.10
2018-10-03T06:02:06.834Z,3.50
2018-10-03T06:04:34.904Z,3.67
2018-10-03T06:07:02.914Z,3.90
2018-10-03T06:09:31.034Z,4.37
2018-10-03T06:11:59.125Z,3.40
2018-10-03T06:14:27.186Z,5.13
2018-10-03T06:16:55.257Z,6.00
2018-10-03T06:19:23.307Z,4.60
2018-10-03T06:21:51.304Z,3.63
2018-10-03T06:24:19.460Z,3.20
2018-10-03T06:26:47.582Z,3.37
2018-10-03T06:29:15.677Z,4.30
2018-10-03T06:31:44.113Z,3.87
2018-10-03T06:34:12.142Z,3.27
2018-10-03T06:36:40.289Z,3.02
2018-10-03T06:39:09.584Z,3.47
2018-10-03T06:41:39.524Z,3.73
2018-10-03T06:44:07.658Z,4.50
2018-10-03T06:46:35.668Z,3.20
2018-10-03T06:49:03.807Z,3.23
2018-10-03T06:51:32.060Z,3.33
2018-10-03T06:54:00.232Z,4.00
2018-10-03T06:56:28.530Z,3.30
2018-10-03T06:58:56.574Z,3.53
2018-10-03T07:01:24.645Z,3.40
2018-10-03T07:03:52.691Z,3.50
2018-10-03T07:06:20.831Z,3.07
2018-10-03T07:08:49.337Z,2.83
2018-10-03T07:11:17.354Z,3.23
2018-10-03T07:13:45.405Z,2.83
2018-10-03T07:16:13.426Z,4.00
2018-10-03T07:18:41.505Z,3.00
2018-10-03T07:21:09.636Z,3.40
2018-10-03T07:23:37.764Z,3.27
2018-10-03T07:26:07.012Z,3.27
2018-10-03T07:28:35.769Z,3.53
2018-10-03T07:31:03.822Z,2.87
2018-10-03T07:33:32.498Z,3.42
2018-10-03T07:36:00.889Z,3.13
2018-10-03T07:38:28.917Z,3.60
2018-10-03T07:40:57.570Z,3.63
2018-10-03T07:43:26.692Z,3.47
2018-10-03T07:45:54.801Z,2.50
2018-10-03T07:48:22.832Z,3.97
2018-10-03T07:50:50.852Z,4.13
2018-10-03T07:53:18.986Z,3.37
2018-10-03T07:55:47.175Z,2.30
2018-10-03T07:58:15.349Z,2.73
2018-10-03T08:00:43.605Z,3.80
2018-10-03T08:03:14.174Z,3.03
2018-10-03T08:05:42.573Z,3.00
2018-10-03T08:08:10.693Z,2.67
2018-10-03T08:10:39.803Z,2.40
2018-10-03T08:13:08.072Z,3.27
2018-10-03T08:15:36.461Z,2.70
2018-10-03T08:18:04.496Z,2.80
2018-10-03T08:20:32.601Z,2.40
2018-10-03T08:23:00.716Z,3.53
2018-10-03T08:25:28.774Z,2.63
2018-10-03T08:27:56.791Z,3.40
2018-10-03T08:30:24.845Z,3.40
2018-10-03T08:32:53.101Z,2.90
2018-10-03T08:35:21.080Z,1.70
2018-10-03T08:37:49.313Z,3.10
2018-10-03T08:40:17.333Z,2.83
2018-10-03T08:42:45.372Z,2.70
2018-10-03T08:45:13.413Z,2.70
2018-10-03T08:47:41.658Z,2.63
2018-10-03T08:50:11.518Z,3.10
2018-10-03T08:52:39.631Z,3.33
2018-10-03T08:55:08.275Z,3.00
2018-10-03T08:57:36.685Z,2.77
2018-10-03T09:00:05.497Z,3.10
2018-10-03T09:02:34.448Z,2.15
2018-10-03T09:05:02.563Z,1.90
2018-10-03T09:07:31.069Z,2.47
2018-10-03T09:09:59.074Z,2.97
2018-10-03T09:12:27.897Z,2.90
2018-10-03T09:14:56.527Z,2.20
2018-10-03T09:17:24.603Z,2.70
2018-10-03T09:19:52.885Z,2.50
2018-10-03T09:22:21.273Z,2.67
2018-10-03T09:24:49.375Z,2.40
2018-10-03T09:27:17.429Z,2.47
2018-10-03T09:29:45.520Z,2.13
2018-10-03T09:32:13.566Z,2.70
2018-10-03T09:34:41.595Z,2.23
2018-10-03T09:37:09.705Z,2.23
2018-10-03T09:39:38.057Z,2.13
2018-10-03T09:42:06.256Z,2.40
2018-10-03T09:44:35.319Z,2.57
2018-10-03T09:47:03.281Z,3.20
2018-10-03T09:49:31.285Z,2.37
2018-10-03T09:51:59.417Z,2.77
2018-10-03T09:54:27.601Z,2.70
2018-10-03T09:59:33.705Z,2.93
2018-10-03T10:02:01.812Z,2.70
2018-10-03T10:04:29.815Z,2.77
2018-10-03T10:09:56.203Z,2.50
2018-10-03T10:12:24.395Z,2.23
2018-10-03T10:14:52.760Z,2.10
2018-10-03T10:17:20.817Z,2.37
2018-10-03T10:19:48.900Z,2.50
2018-10-03T10:22:16.958Z,2.47
2018-10-03T10:24:45.056Z,2.33
2018-10-03T10:27:13.107Z,2.93
2018-10-03T10:29:41.204Z,2.20
2018-10-03T10:32:09.301Z,2.20
2018-10-03T10:34:37.623Z,2.30
2018-10-03T10:37:05.727Z,2.60
2018-10-03T10:39:33.812Z,2.83
2018-10-03T10:42:01.869Z,2.63
2018-10-03T10:44:29.893Z,1.70
2018-10-03T10:46:58.972Z,2.13
2018-10-03T10:49:27.025Z,2.60
2018-10-03T10:51:55.181Z,2.10
2018-10-03T10:54:23.121Z,2.03
2018-10-03T10:56:51.201Z,2.83
2018-10-03T10:59:19.232Z,2.57
2018-10-03T11:01:47.357Z,2.47
2018-10-03T11:04:15.393Z,1.63
2018-10-03T11:06:43.432Z,2.20
2018-10-03T11:09:43.228Z,2.40
2018-10-03T11:12:11.216Z,2.80
2018-10-03T11:14:39.245Z,3.13
2018-10-03T11:17:07.402Z,3.00
2018-10-03T11:19:35.500Z,3.10
2018-10-03T11:22:03.797Z,3.30
2018-10-03T11:24:31.988Z,3.23
2018-10-03T11:27:05.834Z,3.80
2018-10-03T11:29:33.882Z,2.47
2018-10-03T11:32:01.969Z,2.50
2018-10-03T11:34:29.974Z,3.40
2018-10-03T11:36:58.064Z,3.63
2018-10-03T11:39:26.393Z,2.60
2018-10-03T11:41:54.485Z,3.10
2018-10-03T11:44:23.266Z,2.37
2018-10-03T11:46:51.348Z,3.50
2018-10-03T11:49:19.594Z,1.93
2018-10-03T11:51:47.771Z,2.95
2018-10-03T11:54:16.156Z,1.97
2018-10-03T11:56:44.449Z,2.33
2018-10-03T11:59:12.443Z,2.50
2018-10-03T12:01:40.481Z,2.43
2018-10-03T12:06:47.725Z,2.40
2018-10-03T12:09:15.831Z,2.97
2018-10-03T12:11:44.020Z,2.43
2018-10-03T12:14:12.256Z,2.45
2018-10-03T12:16:40.663Z,1.70
2018-10-03T12:19:08.832Z,6.57
2018-10-03T12:21:36.859Z,1.77
2018-10-03T12:24:04.839Z,1.87
2018-10-03T12:26:32.974Z,2.27
2018-10-03T12:29:01.016Z,1.60
2018-10-03T12:31:29.048Z,2.37
2018-10-03T12:33:57.162Z,2.20
2018-10-03T12:36:25.171Z,1.77
2018-10-03T12:38:53.355Z,1.63
2018-10-03T12:41:21.330Z,2.33
2018-10-03T12:43:49.319Z,1.93
2018-10-03T12:46:17.424Z,1.60
2018-10-03T12:48:45.425Z,1.90
2018-10-03T12:51:13.732Z,1.70
2018-10-03T12:53:41.801Z,2.20
2018-10-03T12:56:10.789Z,1.40
2018-10-03T12:58:39.305Z,1.67
2018-10-03T13:01:07.365Z,2.80
2018-10-03T13:03:36.757Z,1.77
2018-10-03T13:06:04.809Z,1.43
2018-10-03T13:08:33.422Z,1.30
2018-10-03T13:11:01.465Z,1.60
2018-10-03T13:13:29.658Z,1.73
2018-10-03T13:15:57.668Z,1.27
2018-10-03T13:18:25.969Z,2.00
2018-10-03T13:20:54.066Z,1.65
2018-10-03T13:23:22.102Z,1.43
2018-10-03T13:25:50.194Z,1.50
2018-10-03T13:28:18.206Z,1.87
2018-10-03T13:30:46.360Z,1.80
2018-10-03T13:36:14.561Z,1.40
2018-10-03T13:38:42.841Z,1.90
2018-10-03T13:41:10.909Z,1.80
2018-10-03T13:43:38.928Z,1.40
2018-10-03T13:46:07.526Z,2.13
2018-10-03T13:48:35.654Z,2.10
2018-10-03T13:51:04.093Z,2.27
2018-10-03T13:53:37.263Z,1.50
2018-10-03T13:56:08.050Z,1.43
2018-10-03T13:58:48.584Z,1.80
2018-10-03T14:01:28.008Z,2.13
2018-10-03T14:04:03.354Z,2.10
2018-10-03T14:06:33.576Z,3.47
2018-10-03T14:09:06.505Z,2.20
2018-10-03T14:11:40.245Z,2.17
2018-10-03T14:14:09.049Z,1.97
2018-10-03T14:16:49.970Z,2.43
2018-10-03T14:22:06.681Z,2.60
2018-10-03T14:24:35.018Z,4.27
2018-10-03T14:27:03.088Z,3.20
2018-10-03T14:29:31.199Z,4.87
2018-10-03T14:31:59.248Z,2.07
2018-10-03T14:34:27.411Z,4.03
2018-10-03T14:36:55.597Z,2.03
2018-10-03T14:39:23.621Z,2.03
2018-10-03T14:41:52.108Z,2.70
2018-10-03T14:44:20.119Z,2.90
2018-10-03T14:46:48.143Z,2.97
2018-10-03T14:49:16.131Z,2.70
2018-10-03T14:51:44.365Z,2.50
2018-10-03T14:54:12.763Z,2.90
2018-10-03T14:56:41.123Z,2.70
2018-10-03T15:01:56.333Z,2.50
2018-10-03T15:04:24.425Z,1.70
2018-10-03T15:06:52.695Z,1.80
2018-10-03T15:09:20.831Z,3.03
2018-10-03T15:11:48.841Z,2.40
2018-10-03T15:14:16.926Z,4.00
2018-10-03T15:16:45.033Z,2.60
2018-10-03T15:19:13.058Z,3.07
2018-10-03T15:21:41.100Z,2.73
2018-10-03T15:24:09.114Z,2.87
2018-10-03T15:26:37.124Z,2.50
2018-10-03T15:29:05.364Z,2.60
2018-10-03T15:31:33.748Z,2.40
2018-10-03T15:36:38.361Z,2.30
2018-10-03T15:39:08.267Z,4.40
2018-10-03T15:41:36.660Z,3.70
2018-10-03T15:44:04.891Z,3.13
2018-10-03T15:46:33.218Z,2.90
2018-10-03T15:51:47.279Z,2.87
2018-10-03T15:54:15.377Z,4.57
2018-10-03T15:56:44.005Z,3.70
2018-10-03T15:59:12.289Z,3.30
2018-10-03T16:01:40.696Z,2.87
2018-10-03T16:06:44.394Z,3.73
2018-10-03T16:09:12.516Z,3.97
2018-10-03T16:11:41.356Z,6.73
2018-10-03T16:14:09.688Z,6.00
2018-10-03T16:16:37.741Z,4.73
2018-10-03T16:19:05.841Z,4.90
2018-10-03T16:21:34.046Z,5.50
2018-10-03T16:24:02.129Z,3.70
2018-10-03T16:26:30.450Z,3.67
2018-10-03T16:28:58.688Z,4.27
2018-10-03T16:31:26.968Z,3.57
2018-10-03T16:33:56.787Z,9.83
2018-10-03T16:36:24.929Z,7.83
2018-10-03T16:38:54.108Z,12.97
2018-10-03T16:41:22.192Z,6.80
2018-10-03T16:43:50.249Z,7.67
2018-10-03T16:46:18.321Z,2.50
2018-10-03T16:48:47.481Z,5.60
2018-10-03T16:51:15.511Z,3.70
2018-10-03T16:53:43.763Z,3.83
2018-10-03T16:56:11.847Z,7.70
2018-10-03T16:58:40.132Z,8.90
2018-10-03T17:01:08.235Z,4.63
2018-10-03T17:03:36.269Z,5.93
2018-10-03T17:06:04.477Z,3.27
2018-10-03T17:08:32.470Z,5.97
2018-10-03T17:11:00.514Z,3.00
2018-10-03T17:13:29.630Z,8.67
2018-10-03T17:15:57.805Z,4.30
2018-10-03T17:18:25.816Z,14.93
2018-10-03T17:20:53.874Z,7.60
2018-10-03T17:23:21.946Z,10.70
2018-10-03T17:25:50.013Z,16.17
2018-10-03T17:28:18.107Z,6.30
2018-10-03T17:30:46.298Z,7.70
2018-10-03T17:33:14.305Z,15.63
2018-10-03T17:35:42.445Z,14.30
2018-10-03T17:38:10.501Z,10.27
2018-10-03T17:40:38.519Z,15.53
2018-10-03T17:43:06.553Z,7.80
2018-10-03T17:45:34.584Z,7.20
2018-10-03T17:48:02.590Z,8.37
2018-10-03T17:50:30.617Z,6.97
2018-10-03T17:52:58.643Z,19.60
2018-10-03T17:55:26.701Z,17.53
2018-10-03T17:57:54.765Z,12.87
2018-10-03T18:00:23.045Z,14.27
2018-10-03T18:02:51.425Z,3.07
2018-10-03T18:05:19.557Z,4.00
2018-10-03T18:07:48.101Z,3.10
2018-10-03T18:10:16.371Z,3.50
2018-10-03T18:12:44.616Z,3.20
2018-10-03T18:16:15.910Z,6.67
2018-10-03T18:18:44.058Z,14.80
2018-10-03T18:21:13.458Z,10.17
2018-10-03T18:23:41.572Z,4.00
2018-10-03T18:26:09.627Z,2.53
2018-10-03T18:28:38.185Z,3.20
2018-10-03T18:31:06.380Z,2.47
2018-10-03T18:33:34.446Z,3.60
2018-10-03T18:36:02.527Z,3.33
2018-10-03T18:38:30.487Z,2.90
2018-10-03T18:40:58.471Z,3.10
2018-10-03T18:43:26.512Z,5.90
2018-10-03T18:45:54.580Z,4.60
2018-10-03T18:48:22.754Z,4.60
2018-10-03T18:50:50.825Z,3.43
2018-10-03T18:53:18.828Z,4.13
2018-10-03T18:55:47.779Z,6.40
2018-10-03T18:58:15.775Z,5.70
2018-10-03T19:00:43.832Z,3.37
2018-10-03T19:03:11.892Z,6.83
2018-10-03T19:05:39.870Z,6.07
2018-10-03T19:08:07.884Z,4.23
2018-10-03T19:10:35.913Z,7.27
2018-10-03T19:13:03.995Z,6.30
2018-10-03T19:15:32.076Z,7.50
2018-10-03T19:18:00.207Z,5.20
2018-10-03T19:20:28.160Z,6.40
2018-10-03T19:22:56.236Z,2.80
2018-10-03T19:25:24.233Z,5.70
2018-10-03T19:27:52.220Z,14.50
2018-10-03T19:30:20.193Z,5.43
2018-10-03T19:32:48.811Z,9.63
2018-10-03T19:35:16.837Z,9.93
2018-10-03T19:37:44.916Z,2.77
2018-10-03T19:40:12.996Z,11.40
2018-10-03T19:42:41.090Z,5.10
2018-10-03T19:45:09.081Z,17.03
2018-10-03T19:47:37.128Z,4.40
2018-10-03T19:50:05.216Z,21.03
2018-10-03T19:52:33.434Z,7.30
2018-10-03T19:55:01.419Z,23.13
2018-10-03T19:57:29.510Z,21.70
2018-10-03T19:59:57.558Z,14.80
2018-10-03T20:02:26.095Z,11.73
2018-10-03T20:04:54.095Z,4.50
2018-10-03T20:07:22.269Z,4.20
2018-10-03T20:09:50.291Z,4.07
2018-10-03T20:12:18.334Z,4.80
2018-10-03T20:14:46.332Z,3.70
2018-10-03T20:17:14.372Z,2.90
2018-10-03T20:19:48.935Z,3.10
2018-10-03T20:22:17.005Z,3.50
2018-10-03T20:24:44.980Z,4.40
2018-10-03T20:27:13.063Z,3.40
2018-10-03T20:29:41.211Z,2.77
2018-10-03T20:32:09.458Z,3.20
2018-10-03T20:34:37.707Z,2.60
2018-10-03T20:37:05.812Z,2.83
2018-10-03T20:39:33.924Z,3.30
2018-10-03T20:42:01.929Z,2.90
2018-10-03T20:44:29.890Z,3.07
2018-10-03T20:46:57.884Z,2.63
2018-10-03T20:49:25.933Z,2.83
2018-10-03T20:51:53.928Z,2.80
2018-10-03T20:54:21.968Z,2.70
2018-10-03T20:56:50.795Z,3.47
2018-10-03T20:59:18.876Z,2.77
2018-10-03T21:01:47.024Z,3.00
2018-10-03T21:04:15.060Z,2.80
2018-10-03T21:06:43.016Z,2.83
2018-10-03T21:09:11.600Z,2.90
2018-10-03T21:11:39.743Z,2.33
2018-10-03T21:14:07.739Z,2.73
2018-10-03T21:16:35.731Z,3.10
2018-10-03T21:19:03.890Z,2.97
2018-10-03T21:21:31.849Z,2.60
2018-10-03T21:23:59.819Z,2.80
2018-10-03T21:26:28.259Z,2.73
2018-10-03T21:28:56.259Z,2.83
2018-10-03T21:31:24.325Z,3.33
2018-10-03T21:33:52.419Z,3.30
2018-10-03T21:36:20.445Z,3.13
2018-10-03T21:38:48.448Z,2.60
2018-10-03T21:41:16.502Z,2.60
2018-10-03T21:43:44.642Z,2.70
2018-10-03T21:46:12.711Z,3.20
2018-10-03T21:48:40.707Z,2.70
2018-10-03T21:51:08.772Z,2.50
2018-10-03T21:53:36.988Z,2.90
2018-10-03T21:56:04.958Z,2.50
2018-10-03T21:58:33.013Z,2.73
2018-10-03T22:01:01.100Z,3.10
2018-10-03T22:03:29.147Z,2.70
2018-10-03T22:05:57.112Z,3.00
2018-10-03T22:08:25.203Z,2.50
2018-10-03T22:10:53.279Z,2.10
2018-10-03T22:13:21.402Z,3.00
2018-10-03T22:15:49.407Z,3.07
2018-10-03T22:18:17.468Z,2.80
2018-10-03T22:20:45.563Z,3.13
2018-10-03T22:23:13.609Z,3.87
2018-10-03T22:25:41.575Z,2.90
2018-10-03T22:28:09.528Z,2.80
2018-10-03T22:30:37.524Z,2.80
2018-10-03T22:33:05.683Z,2.47
2018-10-03T22:35:34.186Z,3.27
2018-10-03T22:38:02.264Z,2.60
2018-10-03T22:40:30.375Z,2.20
2018-10-03T22:42:58.497Z,3.13
2018-10-03T22:45:26.520Z,2.70
2018-10-03T22:47:54.547Z,2.47
2018-10-03T22:50:22.642Z,2.53
2018-10-03T22:52:50.696Z,2.60
2018-10-03T22:55:18.783Z,3.17
2018-10-03T22:57:46.874Z,2.63
2018-10-03T23:00:14.895Z,2.50
2018-10-03T23:02:42.894Z,2.60
2018-10-03T23:05:10.981Z,2.30
2018-10-03T23:07:40.153Z,2.20
2018-10-03T23:10:08.425Z,3.20
2018-10-03T23:12:36.541Z,3.10
2018-10-03T23:15:04.632Z,2.37
2018-10-03T23:17:32.692Z,2.20
2018-10-03T23:20:00.774Z,2.00
2018-10-03T23:22:28.828Z,2.83
2018-10-03T23:24:56.904Z,2.33
2018-10-03T23:27:25.075Z,2.67
2018-10-03T23:29:53.168Z,2.33
2018-10-03T23:32:21.217Z,2.77
2018-10-03T23:34:49.327Z,4.60
2018-10-03T23:37:17.368Z,2.53
2018-10-03T23:39:45.456Z,2.40
2018-10-03T23:42:13.576Z,2.60
2018-10-03T23:44:41.704Z,2.23
2018-10-03T23:47:09.728Z,2.43
2018-10-03T23:52:33.920Z,2.13
2018-10-03T23:55:02.906Z,2.20
2018-10-03T23:57:30.996Z,2.70
2018-10-03T23:59:59.088Z,2.53
